sensor_id;sensor_type;location;lat;lon;timestamp;pressure;altitude;pressure_sealevel;temperature;humidity
61571;BME280;47463;49.884;10.010;2023-07-13T00:00:01;101520;;;18.7;55
61571;BME280;47463;49.884;10.010;2023-07-13T00:05:01;101530;;;18.3;56
61571;BME280;47463;49.884;10.010;2023-07-13T00:10:01;101540;;;18.3;56
61571;BME280;47463;49.884;10.010;2023-07-13T00:15:02;101550;;;18.2;57
61571;BME280;47463;49.884;10.010;2023-07-13T00:20:01;101540;;;18.1;57
61571;BME280;47463;49.884;10.010;2023-07-13T00:25:01;101570;;;18.2;56
61571;BME280;47463;49.884;10.010;2023-07-13T00:30:01;101580;;;18.1;57
61571;BME280;47463;49.884;10.010;2023-07-13T00:35:01;101560;;;17.8;58
61571;BME280;47463;49.884;10.010;2023-07-13T00:40:01;101570;;;17.7;58
61571;BME280;47463;49.884;10.010;2023-07-13T00:45:03;101570;;;17.6;59
61571;BME280;47463;49.884;10.010;2023-07-13T00:50:01;101560;;;17.3;60
61571;BME280;47463;49.884;10.010;2023-07-13T00:55:01;101550;;;17;61
61571;BME280;47463;49.884;10.010;2023-07-13T01:00:02;101550;;;16.7;63
61571;BME280;47463;49.884;10.010;2023-07-13T01:05:01;101560;;;16.6;63
61571;BME280;47463;49.884;10.010;2023-07-13T01:10:01;101570;;;16.3;64
61571;BME280;47463;49.884;10.010;2023-07-13T01:15:01;101570;;;16.1;65
61571;BME280;47463;49.884;10.010;2023-07-13T01:20:01;101570;;;16;66
61571;BME280;47463;49.884;10.010;2023-07-13T01:25:02;101580;;;16.1;65
61571;BME280;47463;49.884;10.010;2023-07-13T01:30:01;101580;;;16.2;64
61571;BME280;47463;49.884;10.010;2023-07-13T01:35:01;101580;;;16.1;65
61571;BME280;47463;49.884;10.010;2023-07-13T01:40:01;101590;;;16;65
61571;BME280;47463;49.884;10.010;2023-07-13T01:45:01;101590;;;15.8;66
61571;BME280;47463;49.884;10.010;2023-07-13T01:50:01;101590;;;15.7;66
61571;BME280;47463;49.884;10.010;2023-07-13T01:55:01;101590;;;15.8;66
61571;BME280;47463;49.884;10.010;2023-07-13T02:00:02;101590;;;15.8;66
61571;BME280;47463;49.884;10.010;2023-07-13T02:05:01;101590;;;16;65
61571;BME280;47463;49.884;10.010;2023-07-13T02:10:01;101600;;;16.1;64
61571;BME280;47463;49.884;10.010;2023-07-13T02:15:01;101610;;;16;65
61571;BME280;47463;49.884;10.010;2023-07-13T02:20:01;101620;;;16;64
61571;BME280;47463;49.884;10.010;2023-07-13T02:25:01;101630;;;16;64
61571;BME280;47463;49.884;10.010;2023-07-13T02:30:01;101630;;;15.8;65
61571;BME280;47463;49.884;10.010;2023-07-13T02:35:01;101630;;;15.4;67
61571;BME280;47463;49.884;10.010;2023-07-13T02:40:01;101630;;;15.1;68
61571;BME280;47463;49.884;10.010;2023-07-13T02:45:01;101640;;;15.2;68
61571;BME280;47463;49.884;10.010;2023-07-13T02:50:01;101630;;;15.1;68
61571;BME280;47463;49.884;10.010;2023-07-13T02:55:01;101640;;;15.3;67
61571;BME280;47463;49.884;10.010;2023-07-13T03:00:01;101640;;;16;63
61571;BME280;47463;49.884;10.010;2023-07-13T03:05:01;101640;;;16;63
61571;BME280;47463;49.884;10.010;2023-07-13T03:10:01;101650;;;15.8;63
61571;BME280;47463;49.884;10.010;2023-07-13T03:15:01;101650;;;15.9;63
61571;BME280;47463;49.884;10.010;2023-07-13T03:20:01;101640;;;15.7;63
61571;BME280;47463;49.884;10.010;2023-07-13T03:25:01;101650;;;15.7;63
61571;BME280;47463;49.884;10.010;2023-07-13T03:30:01;101650;;;15.7;63
61571;BME280;47463;49.884;10.010;2023-07-13T03:35:01;101670;;;15.6;63
61571;BME280;47463;49.884;10.010;2023-07-13T03:40:01;101680;;;15.5;63
61571;BME280;47463;49.884;10.010;2023-07-13T03:45:01;101680;;;15.4;64
61571;BME280;47463;49.884;10.010;2023-07-13T03:50:01;101700;;;15.3;64
61571;BME280;47463;49.884;10.010;2023-07-13T03:55:01;101710;;;15.2;65
61571;BME280;47463;49.884;10.010;2023-07-13T04:00:01;101710;;;15.3;64
61571;BME280;47463;49.884;10.010;2023-07-13T04:05:01;101710;;;15.8;62
61571;BME280;47463;49.884;10.010;2023-07-13T04:10:01;101720;;;16;61
61571;BME280;47463;49.884;10.010;2023-07-13T04:15:01;101730;;;16.1;60
61571;BME280;47463;49.884;10.010;2023-07-13T04:20:01;101740;;;16.2;60
61571;BME280;47463;49.884;10.010;2023-07-13T04:25:01;101740;;;16.3;60
61571;BME280;47463;49.884;10.010;2023-07-13T04:30:01;101750;;;16.3;59
61571;BME280;47463;49.884;10.010;2023-07-13T04:35:01;101750;;;16.6;58
61571;BME280;47463;49.884;10.010;2023-07-13T04:40:01;101760;;;16.7;58
61571;BME280;47463;49.884;10.010;2023-07-13T04:45:01;101760;;;16.8;58
61571;BME280;47463;49.884;10.010;2023-07-13T04:50:01;101760;;;16.9;57
61571;BME280;47463;49.884;10.010;2023-07-13T04:55:01;101760;;;17;57
61571;BME280;47463;49.884;10.010;2023-07-13T05:00:01;101770;;;17;56
61571;BME280;47463;49.884;10.010;2023-07-13T05:05:01;101780;;;16.8;56
61571;BME280;47463;49.884;10.010;2023-07-13T05:10:01;101780;;;16.8;55
61571;BME280;47463;49.884;10.010;2023-07-13T05:15:01;101790;;;16.7;56
61571;BME280;47463;49.884;10.010;2023-07-13T05:20:01;101790;;;16.6;56
61571;BME280;47463;49.884;10.010;2023-07-13T05:25:01;101800;;;16.6;56
61571;BME280;47463;49.884;10.010;2023-07-13T05:30:01;101810;;;16.5;56
61571;BME280;47463;49.884;10.010;2023-07-13T05:35:01;101800;;;16.6;56
61571;BME280;47463;49.884;10.010;2023-07-13T05:40:01;101800;;;16.9;55
61571;BME280;47463;49.884;10.010;2023-07-13T05:45:01;101800;;;17.3;54
61571;BME280;47463;49.884;10.010;2023-07-13T05:50:01;101800;;;17.5;53
61571;BME280;47463;49.884;10.010;2023-07-13T05:55:01;101810;;;17.7;52
61571;BME280;47463;49.884;10.010;2023-07-13T06:00:01;101810;;;17.9;52
61571;BME280;47463;49.884;10.010;2023-07-13T06:05:01;101810;;;18;51
61571;BME280;47463;49.884;10.010;2023-07-13T06:10:01;101820;;;17.6;52
61571;BME280;47463;49.884;10.010;2023-07-13T06:15:01;101820;;;17.7;52
61571;BME280;47463;49.884;10.010;2023-07-13T06:20:01;101820;;;17.7;51
61571;BME280;47463;49.884;10.010;2023-07-13T06:25:01;101830;;;17.7;51
61571;BME280;47463;49.884;10.010;2023-07-13T06:30:01;101830;;;17.9;51
61571;BME280;47463;49.884;10.010;2023-07-13T06:35:01;101830;;;18.2;50
61571;BME280;47463;49.884;10.010;2023-07-13T06:40:01;101840;;;18.6;48
61571;BME280;47463;49.884;10.010;2023-07-13T06:45:01;101840;;;18.7;47
61571;BME280;47463;49.884;10.010;2023-07-13T06:50:01;101830;;;18.9;47
61571;BME280;47463;49.884;10.010;2023-07-13T06:55:01;101830;;;19.1;46
61571;BME280;47463;49.884;10.010;2023-07-13T07:00:01;101840;;;19;46
61571;BME280;47463;49.884;10.010;2023-07-13T07:05:01;101840;;;19.5;45
61571;BME280;47463;49.884;10.010;2023-07-13T07:10:01;101850;;;20.2;45
61571;BME280;47463;49.884;10.010;2023-07-13T07:15:01;101860;;;20.3;43
61571;BME280;47463;49.884;10.010;2023-07-13T07:20:01;101870;;;20.1;43
61571;BME280;47463;49.884;10.010;2023-07-13T07:25:01;101860;;;20;43
61571;BME280;47463;49.884;10.010;2023-07-13T07:30:01;101860;;;19.8;43
61571;BME280;47463;49.884;10.010;2023-07-13T07:35:01;101860;;;20.2;42
61571;BME280;47463;49.884;10.010;2023-07-13T07:40:01;101860;;;20.2;42
61571;BME280;47463;49.884;10.010;2023-07-13T07:45:01;101860;;;20.5;42
61571;BME280;47463;49.884;10.010;2023-07-13T07:50:01;101860;;;20.7;42
61571;BME280;47463;49.884;10.010;2023-07-13T07:55:01;101860;;;20.7;42
61571;BME280;47463;49.884;10.010;2023-07-13T08:00:01;101860;;;21.2;41
61571;BME280;47463;49.884;10.010;2023-07-13T08:05:01;101860;;;21.3;40
61571;BME280;47463;49.884;10.010;2023-07-13T08:10:01;101860;;;21;40
61571;BME280;47463;49.884;10.010;2023-07-13T08:15:01;101860;;;21.2;40
61571;BME280;47463;49.884;10.010;2023-07-13T08:20:01;101860;;;21.3;39
61571;BME280;47463;49.884;10.010;2023-07-13T08:25:01;101860;;;21;39
61571;BME280;47463;49.884;10.010;2023-07-13T08:30:01;101870;;;21.6;39
61571;BME280;47463;49.884;10.010;2023-07-13T08:35:01;101870;;;21.2;39
61571;BME280;47463;49.884;10.010;2023-07-13T08:40:01;101860;;;21.4;39
61571;BME280;47463;49.884;10.010;2023-07-13T08:45:04;101860;;;21.2;39
61571;BME280;47463;49.884;10.010;2023-07-13T08:50:01;101860;;;21.7;39
61571;BME280;47463;49.884;10.010;2023-07-13T08:55:02;101870;;;22;39
61571;BME280;47463;49.884;10.010;2023-07-13T09:00:01;101860;;;21.7;38
61571;BME280;47463;49.884;10.010;2023-07-13T09:05:01;101860;;;21.8;39
61571;BME280;47463;49.884;10.010;2023-07-13T09:10:05;101860;;;22.3;38
61571;BME280;47463;49.884;10.010;2023-07-13T09:15:01;101860;;;22.3;38
61571;BME280;47463;49.884;10.010;2023-07-13T09:20:02;101860;;;22.1;38
61571;BME280;47463;49.884;10.010;2023-07-13T09:25:02;101850;;;22;38
61571;BME280;47463;49.884;10.010;2023-07-13T09:30:02;101850;;;22.4;37
61571;BME280;47463;49.884;10.010;2023-07-13T09:35:01;101850;;;22.6;37
61571;BME280;47463;49.884;10.010;2023-07-13T09:40:01;101850;;;22.7;37
61571;BME280;47463;49.884;10.010;2023-07-13T09:45:01;101850;;;22.2;37
61571;BME280;47463;49.884;10.010;2023-07-13T09:50:03;101850;;;22.2;37
61571;BME280;47463;49.884;10.010;2023-07-13T09:55:01;101850;;;22.6;37
61571;BME280;47463;49.884;10.010;2023-07-13T10:00:01;101840;;;22.9;36
61571;BME280;47463;49.884;10.010;2023-07-13T10:05:01;101850;;;22.8;36
61571;BME280;47463;49.884;10.010;2023-07-13T10:10:01;101850;;;22.2;37
61571;BME280;47463;49.884;10.010;2023-07-13T10:15:01;101850;;;22.3;37
61571;BME280;47463;49.884;10.010;2023-07-13T10:20:01;101850;;;22.5;37
61571;BME280;47463;49.884;10.010;2023-07-13T10:25:01;101840;;;22.5;37
61571;BME280;47463;49.884;10.010;2023-07-13T10:30:02;101850;;;23.3;37
61571;BME280;47463;49.884;10.010;2023-07-13T10:35:01;101850;;;23.2;36
61571;BME280;47463;49.884;10.010;2023-07-13T10:40:01;101840;;;22.9;36
61571;BME280;47463;49.884;10.010;2023-07-13T10:45:01;101840;;;22.6;37
61571;BME280;47463;49.884;10.010;2023-07-13T10:50:01;101840;;;22.5;37
61571;BME280;47463;49.884;10.010;2023-07-13T10:55:02;101850;;;22.9;36
61571;BME280;47463;49.884;10.010;2023-07-13T11:00:13;101830;;;23.6;36
61571;BME280;47463;49.884;10.010;2023-07-13T11:05:12;101830;;;23.5;35
61571;BME280;47463;49.884;10.010;2023-07-13T11:10:03;101830;;;23.5;35
61571;BME280;47463;49.884;10.010;2023-07-13T11:15:03;101820;;;23.7;35
61571;BME280;47463;49.884;10.010;2023-07-13T11:20:09;101830;;;24;34
61571;BME280;47463;49.884;10.010;2023-07-13T11:25:01;101820;;;23.3;35
61571;BME280;47463;49.884;10.010;2023-07-13T11:30:35;101820;;;23.8;34
61571;BME280;47463;49.884;10.010;2023-07-13T11:35:01;101820;;;23.4;35
61571;BME280;47463;49.884;10.010;2023-07-13T11:40:01;101820;;;23;35
61571;BME280;47463;49.884;10.010;2023-07-13T11:45:01;101820;;;23.2;35
61571;BME280;47463;49.884;10.010;2023-07-13T11:50:01;101810;;;23.5;35
61571;BME280;47463;49.884;10.010;2023-07-13T11:55:01;101810;;;23.6;35
61571;BME280;47463;49.884;10.010;2023-07-13T12:00:02;101830;;;23.2;35
61571;BME280;47463;49.884;10.010;2023-07-13T12:05:01;101810;;;23.5;35
61571;BME280;47463;49.884;10.010;2023-07-13T12:10:01;101810;;;23.7;34
61571;BME280;47463;49.884;10.010;2023-07-13T12:15:04;101820;;;24;35
61571;BME280;47463;49.884;10.010;2023-07-13T12:20:03;101820;;;23.8;35
61571;BME280;47463;49.884;10.010;2023-07-13T12:25:01;101820;;;23.5;35
61571;BME280;47463;49.884;10.010;2023-07-13T12:30:02;101820;;;23.5;35
61571;BME280;47463;49.884;10.010;2023-07-13T12:35:07;101810;;;23.6;35
61571;BME280;47463;49.884;10.010;2023-07-13T12:40:01;101810;;;23.2;35
61571;BME280;47463;49.884;10.010;2023-07-13T12:45:01;101810;;;23.4;35
61571;BME280;47463;49.884;10.010;2023-07-13T12:50:02;101810;;;23.3;35
61571;BME280;47463;49.884;10.010;2023-07-13T12:55:03;101810;;;23.7;35
61571;BME280;47463;49.884;10.010;2023-07-13T13:00:01;101820;;;23.6;35
61571;BME280;47463;49.884;10.010;2023-07-13T13:05:01;101830;;;23.3;35
61571;BME280;47463;49.884;10.010;2023-07-13T13:10:01;101820;;;23.8;35
61571;BME280;47463;49.884;10.010;2023-07-13T13:15:01;101830;;;23.3;35
61571;BME280;47463;49.884;10.010;2023-07-13T13:20:01;101830;;;23.3;35
61571;BME280;47463;49.884;10.010;2023-07-13T13:25:01;101820;;;23.4;34
61571;BME280;47463;49.884;10.010;2023-07-13T13:30:01;101820;;;23.9;34
61571;BME280;47463;49.884;10.010;2023-07-13T13:35:01;101830;;;24.5;34
61571;BME280;47463;49.884;10.010;2023-07-13T13:40:01;101830;;;24.5;33
61571;BME280;47463;49.884;10.010;2023-07-13T13:45:01;101820;;;24;34
61571;BME280;47463;49.884;10.010;2023-07-13T13:50:01;101830;;;23.6;34
61571;BME280;47463;49.884;10.010;2023-07-13T13:55:01;101820;;;23.8;35
61571;BME280;47463;49.884;10.010;2023-07-13T14:00:01;101840;;;23.8;34
61571;BME280;47463;49.884;10.010;2023-07-13T14:05:01;101830;;;23.7;34
61571;BME280;47463;49.884;10.010;2023-07-13T14:10:01;101840;;;23.8;34
61571;BME280;47463;49.884;10.010;2023-07-13T14:15:01;101830;;;23.8;35
61571;BME280;47463;49.884;10.010;2023-07-13T14:20:01;101830;;;24.1;34
61571;BME280;47463;49.884;10.010;2023-07-13T14:25:01;101830;;;23.7;34
61571;BME280;47463;49.884;10.010;2023-07-13T14:30:01;101820;;;24;33
61571;BME280;47463;49.884;10.010;2023-07-13T14:35:01;101830;;;23.6;34
61571;BME280;47463;49.884;10.010;2023-07-13T14:40:01;101840;;;23.5;35
61571;BME280;47463;49.884;10.010;2023-07-13T14:45:01;101830;;;23.4;34
61571;BME280;47463;49.884;10.010;2023-07-13T14:50:01;101830;;;23.4;34
61571;BME280;47463;49.884;10.010;2023-07-13T14:55:01;101830;;;23.7;34
61571;BME280;47463;49.884;10.010;2023-07-13T15:00:01;101820;;;23.8;34
61571;BME280;47463;49.884;10.010;2023-07-13T15:05:01;101820;;;23.5;34
61571;BME280;47463;49.884;10.010;2023-07-13T15:10:01;101820;;;23.3;34
61571;BME280;47463;49.884;10.010;2023-07-13T15:15:01;101820;;;23.7;34
61571;BME280;47463;49.884;10.010;2023-07-13T15:20:01;101820;;;24.3;34
61571;BME280;47463;49.884;10.010;2023-07-13T15:25:01;101810;;;23.9;34
61571;BME280;47463;49.884;10.010;2023-07-13T15:30:01;101820;;;23.6;34
61571;BME280;47463;49.884;10.010;2023-07-13T15:35:01;101830;;;23.6;34
61571;BME280;47463;49.884;10.010;2023-07-13T15:40:01;101830;;;23.7;34
61571;BME280;47463;49.884;10.010;2023-07-13T15:45:01;101830;;;23.8;34
61571;BME280;47463;49.884;10.010;2023-07-13T15:50:01;101820;;;23.9;34
61571;BME280;47463;49.884;10.010;2023-07-13T15:55:01;101820;;;24;34
61571;BME280;47463;49.884;10.010;2023-07-13T16:00:01;101820;;;23.8;34
61571;BME280;47463;49.884;10.010;2023-07-13T16:05:01;101820;;;23.5;34
61571;BME280;47463;49.884;10.010;2023-07-13T16:10:01;101830;;;23.8;34
61571;BME280;47463;49.884;10.010;2023-07-13T16:15:01;101820;;;23.9;34
61571;BME280;47463;49.884;10.010;2023-07-13T16:20:01;101820;;;23.5;34
61571;BME280;47463;49.884;10.010;2023-07-13T16:25:01;101820;;;23.5;34
61571;BME280;47463;49.884;10.010;2023-07-13T16:30:05;101820;;;23.4;34
61571;BME280;47463;49.884;10.010;2023-07-13T16:35:01;101820;;;23.5;35
61571;BME280;47463;49.884;10.010;2023-07-13T16:40:01;101820;;;23.8;34
61571;BME280;47463;49.884;10.010;2023-07-13T16:45:01;101820;;;23.8;34
61571;BME280;47463;49.884;10.010;2023-07-13T16:50:01;101820;;;24;34
61571;BME280;47463;49.884;10.010;2023-07-13T16:55:01;101830;;;23.9;34
61571;BME280;47463;49.884;10.010;2023-07-13T17:00:01;101820;;;23.9;34
61571;BME280;47463;49.884;10.010;2023-07-13T17:05:01;101820;;;24;34
61571;BME280;47463;49.884;10.010;2023-07-13T17:10:01;101820;;;23.9;34
61571;BME280;47463;49.884;10.010;2023-07-13T17:15:01;101810;;;23.6;34
61571;BME280;47463;49.884;10.010;2023-07-13T17:20:01;101820;;;23.6;34
61571;BME280;47463;49.884;10.010;2023-07-13T17:25:01;101820;;;23.4;34
61571;BME280;47463;49.884;10.010;2023-07-13T17:30:01;101820;;;23.4;34
61571;BME280;47463;49.884;10.010;2023-07-13T17:35:01;101820;;;23.5;34
61571;BME280;47463;49.884;10.010;2023-07-13T17:40:03;101830;;;23.5;34
61571;BME280;47463;49.884;10.010;2023-07-13T17:45:01;101830;;;23.3;34
61571;BME280;47463;49.884;10.010;2023-07-13T17:50:01;101840;;;23.5;34
61571;BME280;47463;49.884;10.010;2023-07-13T17:55:01;101830;;;23.4;34
61571;BME280;47463;49.884;10.010;2023-07-13T18:00:01;101840;;;23;34
61571;BME280;47463;49.884;10.010;2023-07-13T18:05:01;101840;;;22.9;35
61571;BME280;47463;49.884;10.010;2023-07-13T18:10:01;101850;;;22.8;35
61571;BME280;47463;49.884;10.010;2023-07-13T18:15:01;101830;;;22.7;35
61571;BME280;47463;49.884;10.010;2023-07-13T18:20:01;101850;;;22.7;35
61571;BME280;47463;49.884;10.010;2023-07-13T18:25:01;101850;;;22.3;36
61571;BME280;47463;49.884;10.010;2023-07-13T18:30:01;101850;;;22.1;36
61571;BME280;47463;49.884;10.010;2023-07-13T18:35:01;101860;;;21.9;37
61571;BME280;47463;49.884;10.010;2023-07-13T18:40:01;101850;;;21.8;37
61571;BME280;47463;49.884;10.010;2023-07-13T18:45:01;101860;;;21.6;37
61571;BME280;47463;49.884;10.010;2023-07-13T18:50:01;101860;;;21.4;38
61571;BME280;47463;49.884;10.010;2023-07-13T18:55:01;101870;;;21.2;38
61571;BME280;47463;49.884;10.010;2023-07-13T19:00:01;101870;;;20.9;39
61571;BME280;47463;49.884;10.010;2023-07-13T19:05:01;101880;;;20.7;39
61571;BME280;47463;49.884;10.010;2023-07-13T19:10:01;101880;;;20.3;40
61571;BME280;47463;49.884;10.010;2023-07-13T19:15:01;101890;;;20;41
61571;BME280;47463;49.884;10.010;2023-07-13T19:20:01;101890;;;19.5;43
61571;BME280;47463;49.884;10.010;2023-07-13T19:25:01;101900;;;19.1;44
61571;BME280;47463;49.884;10.010;2023-07-13T19:30:01;101910;;;18.9;45
61571;BME280;47463;49.884;10.010;2023-07-13T19:35:01;101910;;;18.2;47
61571;BME280;47463;49.884;10.010;2023-07-13T19:40:01;101930;;;18.1;47
61571;BME280;47463;49.884;10.010;2023-07-13T19:45:01;101930;;;17.5;50
61571;BME280;47463;49.884;10.010;2023-07-13T19:50:01;101930;;;17.3;51
61571;BME280;47463;49.884;10.010;2023-07-13T19:55:01;101940;;;17.2;51
61571;BME280;47463;49.884;10.010;2023-07-13T20:00:01;101940;;;16.9;52
61571;BME280;47463;49.884;10.010;2023-07-13T20:05:01;101940;;;16.8;53
61571;BME280;47463;49.884;10.010;2023-07-13T20:10:01;101950;;;16.7;54
61571;BME280;47463;49.884;10.010;2023-07-13T20:15:01;101960;;;16.5;54
61571;BME280;47463;49.884;10.010;2023-07-13T20:20:01;101960;;;16.4;55
61571;BME280;47463;49.884;10.010;2023-07-13T20:25:01;101970;;;16.3;55
61571;BME280;47463;49.884;10.010;2023-07-13T20:30:01;101980;;;16.1;56
61571;BME280;47463;49.884;10.010;2023-07-13T20:35:01;101980;;;16.1;56
61571;BME280;47463;49.884;10.010;2023-07-13T20:40:01;101980;;;15.9;57
61571;BME280;47463;49.884;10.010;2023-07-13T20:45:01;101990;;;15.8;57
61571;BME280;47463;49.884;10.010;2023-07-13T20:50:01;102000;;;15.7;58
61571;BME280;47463;49.884;10.010;2023-07-13T20:55:03;102000;;;15.7;57
61571;BME280;47463;49.884;10.010;2023-07-13T21:00:01;101990;;;15.6;58
61571;BME280;47463;49.884;10.010;2023-07-13T21:05:09;102000;;;15.6;58
61571;BME280;47463;49.884;10.010;2023-07-13T21:10:01;102000;;;15.5;58
61571;BME280;47463;49.884;10.010;2023-07-13T21:15:01;102010;;;15.5;58
61571;BME280;47463;49.884;10.010;2023-07-13T21:20:01;102010;;;15.4;58
61571;BME280;47463;49.884;10.010;2023-07-13T21:25:03;102010;;;15.4;59
61571;BME280;47463;49.884;10.010;2023-07-13T21:30:01;102020;;;15.3;59
61571;BME280;47463;49.884;10.010;2023-07-13T21:35:01;102010;;;15.2;60
61571;BME280;47463;49.884;10.010;2023-07-13T21:40:01;102020;;;15.3;59
61571;BME280;47463;49.884;10.010;2023-07-13T21:45:01;102030;;;15.1;61
61571;BME280;47463;49.884;10.010;2023-07-13T21:50:01;102030;;;15.2;60
61571;BME280;47463;49.884;10.010;2023-07-13T21:55:01;102030;;;15.1;60
61571;BME280;47463;49.884;10.010;2023-07-13T22:00:01;102040;;;15.1;60
61571;BME280;47463;49.884;10.010;2023-07-13T22:05:01;102040;;;15;60
61571;BME280;47463;49.884;10.010;2023-07-13T22:10:01;102050;;;14.9;60
61571;BME280;47463;49.884;10.010;2023-07-13T22:15:01;102050;;;14.9;61
61571;BME280;47463;49.884;10.010;2023-07-13T22:20:01;102050;;;14.9;61
61571;BME280;47463;49.884;10.010;2023-07-13T22:25:01;102060;;;14.9;61
61571;BME280;47463;49.884;10.010;2023-07-13T22:30:01;102060;;;14.9;60
61571;BME280;47463;49.884;10.010;2023-07-13T22:35:01;102050;;;14.8;61
61571;BME280;47463;49.884;10.010;2023-07-13T22:40:01;102050;;;14.7;61
61571;BME280;47463;49.884;10.010;2023-07-13T22:45:01;102050;;;14.7;61
61571;BME280;47463;49.884;10.010;2023-07-13T22:50:01;102060;;;14.6;62
61571;BME280;47463;49.884;10.010;2023-07-13T22:55:01;102050;;;14.6;62
61571;BME280;47463;49.884;10.010;2023-07-13T23:00:01;102050;;;14.8;61
61571;BME280;47463;49.884;10.010;2023-07-13T23:05:01;102060;;;14.7;61
61571;BME280;47463;49.884;10.010;2023-07-13T23:10:04;102060;;;14.6;61
61571;BME280;47463;49.884;10.010;2023-07-13T23:15:01;102050;;;14.5;61
61571;BME280;47463;49.884;10.010;2023-07-13T23:20:01;102060;;;14.4;61
61571;BME280;47463;49.884;10.010;2023-07-13T23:25:01;102060;;;14.4;61
61571;BME280;47463;49.884;10.010;2023-07-13T23:30:01;102060;;;14.4;61
61571;BME280;47463;49.884;10.010;2023-07-13T23:35:01;102060;;;14.4;61
61571;BME280;47463;49.884;10.010;2023-07-13T23:40:01;102060;;;14.3;62
61571;BME280;47463;49.884;10.010;2023-07-13T23:45:01;102060;;;14.2;62
61571;BME280;47463;49.884;10.010;2023-07-13T23:50:01;102060;;;14.2;63
61571;BME280;47463;49.884;10.010;2023-07-13T23:55:01;102050;;;14;63
